sensor_id;sensor_type;location;lat;lon;timestamp;P1;durP1;ratioP1;P2;durP2;ratioP2
35835;SDS011;21955;50.580;7.228;2022-12-11T00:00:03;51.67;;;23.73;;
35835;SDS011;21955;50.580;7.228;2022-12-11T00:02:32;50.97;;;24.30;;
35835;SDS011;21955;50.580;7.228;2022-12-11T00:04:59;51.70;;;23.35;;
35835;SDS011;21955;50.580;7.228;2022-12-11T00:07:26;49.17;;;23.65;;
35835;SDS011;21955;50.580;7.228;2022-12-11T00:09:53;52.47;;;23.75;;
35835;SDS011;21955;50.580;7.228;2022-12-11T00:12:22;47.58;;;23.50;;
35835;SDS011;21955;50.580;7.228;2022-12-11T00:14:49;46.28;;;22.65;;
35835;SDS011;21955;50.580;7.228;2022-12-11T00:17:16;46.67;;;23.02;;
35835;SDS011;21955;50.580;7.228;2022-12-11T00:19:43;46.60;;;22.27;;
35835;SDS011;21955;50.580;7.228;2022-12-11T00:22:11;46.70;;;21.85;;
35835;SDS011;21955;50.580;7.228;2022-12-11T00:24:38;47.97;;;23.02;;
35835;SDS011;21955;50.580;7.228;2022-12-11T00:27:05;45.85;;;22.27;;
35835;SDS011;21955;50.580;7.228;2022-12-11T00:29:34;46.95;;;22.23;;
35835;SDS011;21955;50.580;7.228;2022-12-11T00:32:01;48.80;;;22.63;;
35835;SDS011;21955;50.580;7.228;2022-12-11T00:34:28;45.03;;;21.65;;
35835;SDS011;21955;50.580;7.228;2022-12-11T00:36:56;46.47;;;22.55;;
35835;SDS011;21955;50.580;7.228;2022-12-11T00:39:24;45.80;;;20.87;;
35835;SDS011;21955;50.580;7.228;2022-12-11T00:41:51;48.83;;;23.08;;
35835;SDS011;21955;50.580;7.228;2022-12-11T00:44:18;45.15;;;21.63;;
35835;SDS011;21955;50.580;7.228;2022-12-11T00:46:47;46.00;;;22.30;;
35835;SDS011;21955;50.580;7.228;2022-12-11T00:49:14;46.47;;;21.80;;
35835;SDS011;21955;50.580;7.228;2022-12-11T00:51:41;43.95;;;21.23;;
35835;SDS011;21955;50.580;7.228;2022-12-11T00:54:08;45.75;;;21.60;;
35835;SDS011;21955;50.580;7.228;2022-12-11T00:56:36;46.00;;;21.58;;
35835;SDS011;21955;50.580;7.228;2022-12-11T00:59:04;44.75;;;22.58;;
35835;SDS011;21955;50.580;7.228;2022-12-11T01:01:31;45.50;;;22.08;;
35835;SDS011;21955;50.580;7.228;2022-12-11T01:04:00;44.70;;;21.70;;
35835;SDS011;21955;50.580;7.228;2022-12-11T01:06:27;47.80;;;22.83;;
35835;SDS011;21955;50.580;7.228;2022-12-11T01:08:55;44.97;;;21.90;;
35835;SDS011;21955;50.580;7.228;2022-12-11T01:11:36;45.65;;;21.83;;
35835;SDS011;21955;50.580;7.228;2022-12-11T01:14:03;45.53;;;21.03;;
35835;SDS011;21955;50.580;7.228;2022-12-11T01:16:31;45.57;;;21.90;;
35835;SDS011;21955;50.580;7.228;2022-12-11T01:18:59;48.42;;;21.85;;
35835;SDS011;21955;50.580;7.228;2022-12-11T01:21:27;42.93;;;21.07;;
35835;SDS011;21955;50.580;7.228;2022-12-11T01:23:54;44.22;;;21.92;;
35835;SDS011;21955;50.580;7.228;2022-12-11T01:26:21;41.95;;;20.73;;
35835;SDS011;21955;50.580;7.228;2022-12-11T01:28:49;44.33;;;21.40;;
35835;SDS011;21955;50.580;7.228;2022-12-11T01:31:16;44.38;;;21.75;;
35835;SDS011;21955;50.580;7.228;2022-12-11T01:33:44;46.28;;;21.45;;
35835;SDS011;21955;50.580;7.228;2022-12-11T01:36:14;45.88;;;21.25;;
35835;SDS011;21955;50.580;7.228;2022-12-11T01:38:41;47.03;;;22.10;;
35835;SDS011;21955;50.580;7.228;2022-12-11T01:41:09;44.85;;;22.10;;
35835;SDS011;21955;50.580;7.228;2022-12-11T01:46:18;46.78;;;22.58;;
35835;SDS011;21955;50.580;7.228;2022-12-11T01:48:45;48.88;;;22.13;;
35835;SDS011;21955;50.580;7.228;2022-12-11T01:51:14;48.72;;;21.40;;
35835;SDS011;21955;50.580;7.228;2022-12-11T01:53:42;45.28;;;21.85;;
35835;SDS011;21955;50.580;7.228;2022-12-11T01:56:11;46.90;;;20.80;;
35835;SDS011;21955;50.580;7.228;2022-12-11T01:58:39;46.55;;;22.30;;
35835;SDS011;21955;50.580;7.228;2022-12-11T02:01:07;48.92;;;22.90;;
35835;SDS011;21955;50.580;7.228;2022-12-11T02:03:36;47.97;;;22.20;;
35835;SDS011;21955;50.580;7.228;2022-12-11T02:06:04;47.72;;;20.83;;
35835;SDS011;21955;50.580;7.228;2022-12-11T02:08:32;51.65;;;23.15;;
35835;SDS011;21955;50.580;7.228;2022-12-11T02:11:02;48.30;;;22.20;;
35835;SDS011;21955;50.580;7.228;2022-12-11T02:13:33;48.47;;;22.40;;
35835;SDS011;21955;50.580;7.228;2022-12-11T02:16:04;47.72;;;22.27;;
35835;SDS011;21955;50.580;7.228;2022-12-11T02:18:35;49.50;;;22.88;;
35835;SDS011;21955;50.580;7.228;2022-12-11T02:21:06;46.30;;;21.65;;
35835;SDS011;21955;50.580;7.228;2022-12-11T02:23:42;46.83;;;19.80;;
35835;SDS011;21955;50.580;7.228;2022-12-11T02:26:20;46.33;;;19.65;;
35835;SDS011;21955;50.580;7.228;2022-12-11T02:28:53;48.65;;;21.35;;
35835;SDS011;21955;50.580;7.228;2022-12-11T02:31:25;46.85;;;20.17;;
35835;SDS011;21955;50.580;7.228;2022-12-11T02:33:55;43.58;;;19.60;;
35835;SDS011;21955;50.580;7.228;2022-12-11T02:36:25;45.72;;;22.45;;
35835;SDS011;21955;50.580;7.228;2022-12-11T02:38:54;46.67;;;22.35;;
35835;SDS011;21955;50.580;7.228;2022-12-11T02:41:23;44.20;;;21.10;;
35835;SDS011;21955;50.580;7.228;2022-12-11T02:43:50;48.35;;;22.13;;
35835;SDS011;21955;50.580;7.228;2022-12-11T02:46:19;46.72;;;22.05;;
35835;SDS011;21955;50.580;7.228;2022-12-11T02:48:47;47.92;;;22.23;;
35835;SDS011;21955;50.580;7.228;2022-12-11T02:51:16;46.38;;;22.35;;
35835;SDS011;21955;50.580;7.228;2022-12-11T02:53:44;48.00;;;22.13;;
35835;SDS011;21955;50.580;7.228;2022-12-11T02:56:13;46.88;;;20.40;;
35835;SDS011;21955;50.580;7.228;2022-12-11T02:58:42;48.35;;;22.67;;
35835;SDS011;21955;50.580;7.228;2022-12-11T03:01:10;47.97;;;22.85;;
35835;SDS011;21955;50.580;7.228;2022-12-11T03:03:39;49.20;;;22.73;;
35835;SDS011;21955;50.580;7.228;2022-12-11T03:06:06;48.80;;;22.50;;
35835;SDS011;21955;50.580;7.228;2022-12-11T03:08:34;49.83;;;23.60;;
35835;SDS011;21955;50.580;7.228;2022-12-11T03:11:02;50.80;;;22.83;;
35835;SDS011;21955;50.580;7.228;2022-12-11T03:13:29;51.72;;;23.17;;
35835;SDS011;21955;50.580;7.228;2022-12-11T03:15:59;57.70;;;21.13;;
35835;SDS011;21955;50.580;7.228;2022-12-11T03:18:31;59.97;;;24.25;;
35835;SDS011;21955;50.580;7.228;2022-12-11T03:21:03;55.23;;;23.50;;
35835;SDS011;21955;50.580;7.228;2022-12-11T03:23:32;52.22;;;23.20;;
35835;SDS011;21955;50.580;7.228;2022-12-11T03:26:03;55.43;;;23.20;;
35835;SDS011;21955;50.580;7.228;2022-12-11T03:28:32;55.47;;;24.20;;
35835;SDS011;21955;50.580;7.228;2022-12-11T03:31:02;57.13;;;22.13;;
35835;SDS011;21955;50.580;7.228;2022-12-11T03:33:31;52.22;;;23.30;;
35835;SDS011;21955;50.580;7.228;2022-12-11T03:36:00;51.53;;;23.38;;
35835;SDS011;21955;50.580;7.228;2022-12-11T03:38:30;53.07;;;23.73;;
35835;SDS011;21955;50.580;7.228;2022-12-11T03:40:59;51.17;;;23.60;;
35835;SDS011;21955;50.580;7.228;2022-12-11T03:43:27;53.03;;;23.35;;
35835;SDS011;21955;50.580;7.228;2022-12-11T03:45:56;54.70;;;22.95;;
35835;SDS011;21955;50.580;7.228;2022-12-11T03:48:24;52.67;;;23.92;;
35835;SDS011;21955;50.580;7.228;2022-12-11T03:50:53;61.28;;;25.67;;
35835;SDS011;21955;50.580;7.228;2022-12-11T03:53:21;65.47;;;25.37;;
35835;SDS011;21955;50.580;7.228;2022-12-11T03:55:50;65.80;;;26.30;;
35835;SDS011;21955;50.580;7.228;2022-12-11T03:58:17;58.70;;;24.67;;
35835;SDS011;21955;50.580;7.228;2022-12-11T04:00:44;57.70;;;25.40;;
35835;SDS011;21955;50.580;7.228;2022-12-11T04:03:12;56.42;;;25.30;;
35835;SDS011;21955;50.580;7.228;2022-12-11T04:05:40;59.85;;;25.65;;
35835;SDS011;21955;50.580;7.228;2022-12-11T04:08:07;65.53;;;26.35;;
35835;SDS011;21955;50.580;7.228;2022-12-11T04:10:35;63.63;;;25.88;;
35835;SDS011;21955;50.580;7.228;2022-12-11T04:13:03;57.90;;;25.57;;
35835;SDS011;21955;50.580;7.228;2022-12-11T04:15:30;59.27;;;24.80;;
35835;SDS011;21955;50.580;7.228;2022-12-11T04:17:56;60.38;;;25.35;;
35835;SDS011;21955;50.580;7.228;2022-12-11T04:20:41;61.60;;;23.87;;
35835;SDS011;21955;50.580;7.228;2022-12-11T04:23:26;65.50;;;24.83;;
35835;SDS011;21955;50.580;7.228;2022-12-11T04:26:12;61.40;;;26.17;;
35835;SDS011;21955;50.580;7.228;2022-12-11T04:28:41;62.30;;;26.30;;
35835;SDS011;21955;50.580;7.228;2022-12-11T04:31:09;66.30;;;26.70;;
35835;SDS011;21955;50.580;7.228;2022-12-11T04:33:37;68.10;;;27.13;;
35835;SDS011;21955;50.580;7.228;2022-12-11T04:36:04;76.13;;;27.52;;
35835;SDS011;21955;50.580;7.228;2022-12-11T04:38:32;74.73;;;28.13;;
35835;SDS011;21955;50.580;7.228;2022-12-11T04:40:59;70.45;;;28.50;;
35835;SDS011;21955;50.580;7.228;2022-12-11T04:43:27;76.82;;;29.50;;
35835;SDS011;21955;50.580;7.228;2022-12-11T04:46:00;70.60;;;29.50;;
35835;SDS011;21955;50.580;7.228;2022-12-11T04:48:28;74.22;;;28.58;;
35835;SDS011;21955;50.580;7.228;2022-12-11T04:50:55;71.68;;;28.48;;
35835;SDS011;21955;50.580;7.228;2022-12-11T04:53:22;67.97;;;25.15;;
35835;SDS011;21955;50.580;7.228;2022-12-11T04:55:49;69.50;;;28.48;;
35835;SDS011;21955;50.580;7.228;2022-12-11T04:58:17;72.45;;;28.88;;
35835;SDS011;21955;50.580;7.228;2022-12-11T05:00:44;76.17;;;30.30;;
35835;SDS011;21955;50.580;7.228;2022-12-11T05:03:13;74.53;;;26.58;;
35835;SDS011;21955;50.580;7.228;2022-12-11T05:05:40;73.32;;;29.52;;
35835;SDS011;21955;50.580;7.228;2022-12-11T05:08:07;73.85;;;28.95;;
35835;SDS011;21955;50.580;7.228;2022-12-11T05:10:34;74.47;;;28.45;;
35835;SDS011;21955;50.580;7.228;2022-12-11T05:13:01;72.00;;;29.70;;
35835;SDS011;21955;50.580;7.228;2022-12-11T05:15:28;69.57;;;28.42;;
35835;SDS011;21955;50.580;7.228;2022-12-11T05:17:55;70.65;;;28.73;;
35835;SDS011;21955;50.580;7.228;2022-12-11T05:20:24;66.22;;;25.55;;
35835;SDS011;21955;50.580;7.228;2022-12-11T05:22:51;66.22;;;27.40;;
35835;SDS011;21955;50.580;7.228;2022-12-11T05:25:20;64.10;;;27.80;;
35835;SDS011;21955;50.580;7.228;2022-12-11T05:27:47;67.35;;;28.95;;
35835;SDS011;21955;50.580;7.228;2022-12-11T05:30:14;69.90;;;28.43;;
35835;SDS011;21955;50.580;7.228;2022-12-11T05:32:41;64.60;;;24.90;;
35835;SDS011;21955;50.580;7.228;2022-12-11T05:35:08;68.63;;;27.98;;
35835;SDS011;21955;50.580;7.228;2022-12-11T05:37:37;72.50;;;28.85;;
35835;SDS011;21955;50.580;7.228;2022-12-11T05:40:05;72.05;;;26.33;;
35835;SDS011;21955;50.580;7.228;2022-12-11T05:42:32;72.53;;;28.95;;
35835;SDS011;21955;50.580;7.228;2022-12-11T05:45:00;70.47;;;28.73;;
35835;SDS011;21955;50.580;7.228;2022-12-11T05:47:27;76.05;;;29.83;;
35835;SDS011;21955;50.580;7.228;2022-12-11T05:49:54;72.57;;;29.00;;
35835;SDS011;21955;50.580;7.228;2022-12-11T05:52:21;75.07;;;29.20;;
35835;SDS011;21955;50.580;7.228;2022-12-11T05:54:50;81.30;;;30.33;;
35835;SDS011;21955;50.580;7.228;2022-12-11T05:57:17;77.17;;;29.80;;
35835;SDS011;21955;50.580;7.228;2022-12-11T05:59:44;82.32;;;30.85;;
35835;SDS011;21955;50.580;7.228;2022-12-11T06:02:11;79.50;;;30.23;;
35835;SDS011;21955;50.580;7.228;2022-12-11T06:04:42;85.20;;;30.45;;
35835;SDS011;21955;50.580;7.228;2022-12-11T06:07:09;80.20;;;30.48;;
35835;SDS011;21955;50.580;7.228;2022-12-11T06:09:37;80.65;;;30.23;;
35835;SDS011;21955;50.580;7.228;2022-12-11T06:12:05;85.97;;;31.17;;
35835;SDS011;21955;50.580;7.228;2022-12-11T06:14:32;85.63;;;30.50;;
35835;SDS011;21955;50.580;7.228;2022-12-11T06:16:59;84.40;;;30.92;;
35835;SDS011;21955;50.580;7.228;2022-12-11T06:19:27;90.70;;;32.33;;
35835;SDS011;21955;50.580;7.228;2022-12-11T06:21:54;85.50;;;29.77;;
35835;SDS011;21955;50.580;7.228;2022-12-11T06:24:21;86.38;;;30.08;;
35835;SDS011;21955;50.580;7.228;2022-12-11T06:26:48;97.00;;;32.30;;
35835;SDS011;21955;50.580;7.228;2022-12-11T06:29:17;89.47;;;32.03;;
35835;SDS011;21955;50.580;7.228;2022-12-11T06:31:44;88.13;;;31.92;;
35835;SDS011;21955;50.580;7.228;2022-12-11T06:34:11;87.20;;;31.30;;
35835;SDS011;21955;50.580;7.228;2022-12-11T06:36:38;96.22;;;32.30;;
35835;SDS011;21955;50.580;7.228;2022-12-11T06:39:06;89.00;;;31.08;;
35835;SDS011;21955;50.580;7.228;2022-12-11T06:41:33;87.15;;;31.45;;
35835;SDS011;21955;50.580;7.228;2022-12-11T06:44:01;88.38;;;32.35;;
35835;SDS011;21955;50.580;7.228;2022-12-11T06:46:29;92.80;;;31.48;;
35835;SDS011;21955;50.580;7.228;2022-12-11T06:48:56;93.90;;;33.42;;
35835;SDS011;21955;50.580;7.228;2022-12-11T06:51:23;98.83;;;33.27;;
35835;SDS011;21955;50.580;7.228;2022-12-11T06:53:51;94.05;;;31.40;;
35835;SDS011;21955;50.580;7.228;2022-12-11T06:56:19;99.05;;;33.53;;
35835;SDS011;21955;50.580;7.228;2022-12-11T06:58:46;89.03;;;28.43;;
35835;SDS011;21955;50.580;7.228;2022-12-11T07:01:14;90.75;;;32.25;;
35835;SDS011;21955;50.580;7.228;2022-12-11T07:03:43;88.65;;;31.77;;
35835;SDS011;21955;50.580;7.228;2022-12-11T07:06:10;86.43;;;28.65;;
35835;SDS011;21955;50.580;7.228;2022-12-11T07:08:37;81.97;;;30.53;;
35835;SDS011;21955;50.580;7.228;2022-12-11T07:11:05;66.45;;;25.92;;
35835;SDS011;21955;50.580;7.228;2022-12-11T07:13:32;67.50;;;27.98;;
35835;SDS011;21955;50.580;7.228;2022-12-11T07:16:00;73.13;;;28.92;;
35835;SDS011;21955;50.580;7.228;2022-12-11T07:18:28;69.67;;;27.47;;
35835;SDS011;21955;50.580;7.228;2022-12-11T07:20:58;68.60;;;28.55;;
35835;SDS011;21955;50.580;7.228;2022-12-11T07:23:25;69.30;;;27.05;;
35835;SDS011;21955;50.580;7.228;2022-12-11T07:25:52;68.63;;;27.67;;
35835;SDS011;21955;50.580;7.228;2022-12-11T07:28:20;64.40;;;27.27;;
35835;SDS011;21955;50.580;7.228;2022-12-11T07:30:47;64.78;;;27.20;;
35835;SDS011;21955;50.580;7.228;2022-12-11T07:33:14;67.53;;;26.87;;
35835;SDS011;21955;50.580;7.228;2022-12-11T07:35:41;62.35;;;26.25;;
35835;SDS011;21955;50.580;7.228;2022-12-11T07:38:09;62.10;;;26.73;;
35835;SDS011;21955;50.580;7.228;2022-12-11T07:40:37;59.87;;;26.50;;
35835;SDS011;21955;50.580;7.228;2022-12-11T07:43:04;59.78;;;26.08;;
35835;SDS011;21955;50.580;7.228;2022-12-11T07:45:31;61.92;;;26.60;;
35835;SDS011;21955;50.580;7.228;2022-12-11T07:47:58;60.00;;;26.42;;
35835;SDS011;21955;50.580;7.228;2022-12-11T07:50:25;61.97;;;26.63;;
35835;SDS011;21955;50.580;7.228;2022-12-11T07:52:52;61.03;;;26.40;;
35835;SDS011;21955;50.580;7.228;2022-12-11T07:55:21;62.75;;;25.65;;
35835;SDS011;21955;50.580;7.228;2022-12-11T07:57:48;65.32;;;26.92;;
35835;SDS011;21955;50.580;7.228;2022-12-11T08:00:15;60.78;;;25.88;;
35835;SDS011;21955;50.580;7.228;2022-12-11T08:02:43;61.17;;;26.02;;
35835;SDS011;21955;50.580;7.228;2022-12-11T08:05:10;59.95;;;25.45;;
35835;SDS011;21955;50.580;7.228;2022-12-11T08:07:37;58.65;;;25.67;;
35835;SDS011;21955;50.580;7.228;2022-12-11T08:10:05;60.65;;;26.40;;
35835;SDS011;21955;50.580;7.228;2022-12-11T08:12:33;61.15;;;27.27;;
35835;SDS011;21955;50.580;7.228;2022-12-11T08:15:00;59.60;;;25.77;;
35835;SDS011;21955;50.580;7.228;2022-12-11T08:17:27;53.80;;;25.15;;
35835;SDS011;21955;50.580;7.228;2022-12-11T08:19:55;58.65;;;22.67;;
35835;SDS011;21955;50.580;7.228;2022-12-11T08:22:22;56.78;;;25.35;;
35835;SDS011;21955;50.580;7.228;2022-12-11T08:24:49;57.67;;;25.08;;
35835;SDS011;21955;50.580;7.228;2022-12-11T08:27:16;62.17;;;25.73;;
35835;SDS011;21955;50.580;7.228;2022-12-11T08:29:45;60.58;;;25.70;;
35835;SDS011;21955;50.580;7.228;2022-12-11T08:32:12;58.97;;;25.75;;
35835;SDS011;21955;50.580;7.228;2022-12-11T08:34:41;58.17;;;25.25;;
35835;SDS011;21955;50.580;7.228;2022-12-11T08:37:08;54.53;;;24.70;;
35835;SDS011;21955;50.580;7.228;2022-12-11T08:39:36;55.95;;;24.50;;
35835;SDS011;21955;50.580;7.228;2022-12-11T08:42:03;59.25;;;26.05;;
35835;SDS011;21955;50.580;7.228;2022-12-11T08:44:30;55.85;;;25.48;;
35835;SDS011;21955;50.580;7.228;2022-12-11T08:46:59;54.88;;;24.85;;
35835;SDS011;21955;50.580;7.228;2022-12-11T08:49:26;58.97;;;26.50;;
35835;SDS011;21955;50.580;7.228;2022-12-11T08:51:53;55.60;;;25.23;;
35835;SDS011;21955;50.580;7.228;2022-12-11T08:54:20;53.53;;;24.60;;
35835;SDS011;21955;50.580;7.228;2022-12-11T08:56:47;54.95;;;24.95;;
35835;SDS011;21955;50.580;7.228;2022-12-11T08:59:15;54.13;;;24.77;;
35835;SDS011;21955;50.580;7.228;2022-12-11T09:01:42;52.75;;;24.10;;
35835;SDS011;21955;50.580;7.228;2022-12-11T09:04:11;54.13;;;24.45;;
35835;SDS011;21955;50.580;7.228;2022-12-11T09:06:38;53.95;;;24.20;;
35835;SDS011;21955;50.580;7.228;2022-12-11T09:09:05;54.92;;;24.17;;
35835;SDS011;21955;50.580;7.228;2022-12-11T09:11:33;51.78;;;23.58;;
35835;SDS011;21955;50.580;7.228;2022-12-11T09:14:01;51.90;;;23.98;;
35835;SDS011;21955;50.580;7.228;2022-12-11T09:16:29;52.13;;;23.67;;
35835;SDS011;21955;50.580;7.228;2022-12-11T09:18:57;54.92;;;24.80;;
35835;SDS011;21955;50.580;7.228;2022-12-11T09:21:26;53.40;;;25.10;;
35835;SDS011;21955;50.580;7.228;2022-12-11T09:23:54;53.47;;;24.58;;
35835;SDS011;21955;50.580;7.228;2022-12-11T09:26:21;54.50;;;23.83;;
35835;SDS011;21955;50.580;7.228;2022-12-11T09:28:49;54.92;;;24.08;;
35835;SDS011;21955;50.580;7.228;2022-12-11T09:31:17;52.42;;;24.13;;
35835;SDS011;21955;50.580;7.228;2022-12-11T09:33:45;50.75;;;23.85;;
35835;SDS011;21955;50.580;7.228;2022-12-11T09:36:12;49.67;;;23.40;;
35835;SDS011;21955;50.580;7.228;2022-12-11T09:38:40;51.40;;;24.05;;
35835;SDS011;21955;50.580;7.228;2022-12-11T09:41:16;53.40;;;24.08;;
35835;SDS011;21955;50.580;7.228;2022-12-11T09:43:44;51.20;;;23.60;;
35835;SDS011;21955;50.580;7.228;2022-12-11T09:46:13;48.28;;;22.77;;
35835;SDS011;21955;50.580;7.228;2022-12-11T09:48:41;52.85;;;23.88;;
35835;SDS011;21955;50.580;7.228;2022-12-11T09:51:11;49.13;;;23.23;;
35835;SDS011;21955;50.580;7.228;2022-12-11T09:53:42;51.53;;;23.52;;
35835;SDS011;21955;50.580;7.228;2022-12-11T09:58:38;54.63;;;23.53;;
35835;SDS011;21955;50.580;7.228;2022-12-11T10:01:08;54.50;;;24.20;;
35835;SDS011;21955;50.580;7.228;2022-12-11T10:03:47;53.90;;;24.55;;
35835;SDS011;21955;50.580;7.228;2022-12-11T10:06:19;53.67;;;24.13;;
35835;SDS011;21955;50.580;7.228;2022-12-11T10:08:51;54.35;;;25.00;;
35835;SDS011;21955;50.580;7.228;2022-12-11T10:11:27;48.83;;;23.23;;
35835;SDS011;21955;50.580;7.228;2022-12-11T10:16:28;50.45;;;23.40;;
35835;SDS011;21955;50.580;7.228;2022-12-11T10:18:59;49.05;;;22.65;;
35835;SDS011;21955;50.580;7.228;2022-12-11T10:23:55;50.03;;;23.27;;
35835;SDS011;21955;50.580;7.228;2022-12-11T10:26:23;50.80;;;23.65;;
35835;SDS011;21955;50.580;7.228;2022-12-11T10:28:51;47.20;;;22.30;;
35835;SDS011;21955;50.580;7.228;2022-12-11T10:31:19;46.45;;;22.10;;
35835;SDS011;21955;50.580;7.228;2022-12-11T10:33:48;46.25;;;22.65;;
35835;SDS011;21955;50.580;7.228;2022-12-11T10:36:19;45.88;;;22.42;;
35835;SDS011;21955;50.580;7.228;2022-12-11T10:38:51;47.25;;;21.20;;
35835;SDS011;21955;50.580;7.228;2022-12-11T10:41:20;43.30;;;21.08;;
35835;SDS011;21955;50.580;7.228;2022-12-11T10:43:49;42.35;;;20.80;;
35835;SDS011;21955;50.580;7.228;2022-12-11T10:46:18;41.15;;;20.30;;
35835;SDS011;21955;50.580;7.228;2022-12-11T10:48:46;42.45;;;20.38;;
35835;SDS011;21955;50.580;7.228;2022-12-11T10:51:13;42.38;;;20.20;;
35835;SDS011;21955;50.580;7.228;2022-12-11T10:53:40;41.35;;;19.38;;
35835;SDS011;21955;50.580;7.228;2022-12-11T10:56:08;41.23;;;20.20;;
35835;SDS011;21955;50.580;7.228;2022-12-11T10:58:39;41.57;;;19.60;;
35835;SDS011;21955;50.580;7.228;2022-12-11T11:01:13;42.63;;;20.40;;
35835;SDS011;21955;50.580;7.228;2022-12-11T11:03:42;40.50;;;20.23;;
35835;SDS011;21955;50.580;7.228;2022-12-11T11:06:18;43.75;;;21.55;;
35835;SDS011;21955;50.580;7.228;2022-12-11T11:08:46;41.63;;;21.15;;
35835;SDS011;21955;50.580;7.228;2022-12-11T11:11:19;42.80;;;22.00;;
35835;SDS011;21955;50.580;7.228;2022-12-11T11:13:48;47.67;;;22.83;;
35835;SDS011;21955;50.580;7.228;2022-12-11T11:16:15;43.88;;;20.27;;
35835;SDS011;21955;50.580;7.228;2022-12-11T11:18:47;44.05;;;21.85;;
35835;SDS011;21955;50.580;7.228;2022-12-11T11:21:15;67.35;;;33.90;;
35835;SDS011;21955;50.580;7.228;2022-12-11T11:23:42;55.30;;;26.77;;
35835;SDS011;21955;50.580;7.228;2022-12-11T11:26:10;46.00;;;22.38;;
35835;SDS011;21955;50.580;7.228;2022-12-11T11:28:38;42.97;;;22.20;;
35835;SDS011;21955;50.580;7.228;2022-12-11T11:31:09;44.63;;;22.23;;
35835;SDS011;21955;50.580;7.228;2022-12-11T11:33:43;45.05;;;22.23;;
35835;SDS011;21955;50.580;7.228;2022-12-11T11:36:16;45.35;;;22.08;;
35835;SDS011;21955;50.580;7.228;2022-12-11T11:38:45;41.47;;;21.13;;
35835;SDS011;21955;50.580;7.228;2022-12-11T11:41:16;46.50;;;21.10;;
35835;SDS011;21955;50.580;7.228;2022-12-11T11:43:47;45.55;;;21.77;;
35835;SDS011;21955;50.580;7.228;2022-12-11T11:46:16;48.93;;;23.73;;
35835;SDS011;21955;50.580;7.228;2022-12-11T11:51:15;48.00;;;22.75;;
35835;SDS011;21955;50.580;7.228;2022-12-11T11:53:46;43.20;;;21.02;;
35835;SDS011;21955;50.580;7.228;2022-12-11T11:56:19;43.92;;;20.58;;
35835;SDS011;21955;50.580;7.228;2022-12-11T11:58:48;44.65;;;21.02;;
35835;SDS011;21955;50.580;7.228;2022-12-11T12:01:21;43.17;;;21.08;;
35835;SDS011;21955;50.580;7.228;2022-12-11T12:03:48;45.80;;;21.95;;
35835;SDS011;21955;50.580;7.228;2022-12-11T12:06:18;42.40;;;20.90;;
35835;SDS011;21955;50.580;7.228;2022-12-11T12:08:49;48.20;;;21.90;;
35835;SDS011;21955;50.580;7.228;2022-12-11T12:11:20;46.20;;;22.50;;
35835;SDS011;21955;50.580;7.228;2022-12-11T12:21:15;53.40;;;23.40;;
35835;SDS011;21955;50.580;7.228;2022-12-11T12:26:13;42.50;;;20.60;;
35835;SDS011;21955;50.580;7.228;2022-12-11T12:28:43;43.60;;;21.35;;
35835;SDS011;21955;50.580;7.228;2022-12-11T12:31:16;43.60;;;21.30;;
35835;SDS011;21955;50.580;7.228;2022-12-11T12:33:48;42.20;;;21.30;;
35835;SDS011;21955;50.580;7.228;2022-12-11T12:36:23;44.75;;;20.60;;
35835;SDS011;21955;50.580;7.228;2022-12-11T12:41:19;41.40;;;19.90;;
35835;SDS011;21955;50.580;7.228;2022-12-11T12:43:54;40.03;;;19.63;;
35835;SDS011;21955;50.580;7.228;2022-12-11T12:46:26;39.55;;;19.13;;
35835;SDS011;21955;50.580;7.228;2022-12-11T12:51:23;39.08;;;18.80;;
35835;SDS011;21955;50.580;7.228;2022-12-11T12:53:52;40.90;;;20.10;;
35835;SDS011;21955;50.580;7.228;2022-12-11T12:56:20;39.35;;;18.73;;
35835;SDS011;21955;50.580;7.228;2022-12-11T12:58:47;38.80;;;19.35;;
35835;SDS011;21955;50.580;7.228;2022-12-11T13:01:15;42.60;;;18.88;;
35835;SDS011;21955;50.580;7.228;2022-12-11T13:03:50;62.55;;;22.48;;
35835;SDS011;21955;50.580;7.228;2022-12-11T13:06:34;34.58;;;16.42;;
35835;SDS011;21955;50.580;7.228;2022-12-11T13:09:09;35.28;;;16.33;;
35835;SDS011;21955;50.580;7.228;2022-12-11T13:11:38;33.73;;;16.60;;
35835;SDS011;21955;50.580;7.228;2022-12-11T13:14:06;32.40;;;15.95;;
35835;SDS011;21955;50.580;7.228;2022-12-11T13:16:34;33.92;;;16.52;;
35835;SDS011;21955;50.580;7.228;2022-12-11T13:19:01;32.77;;;17.10;;
35835;SDS011;21955;50.580;7.228;2022-12-11T13:21:30;34.50;;;17.27;;
35835;SDS011;21955;50.580;7.228;2022-12-11T13:24:16;36.90;;;17.92;;
35835;SDS011;21955;50.580;7.228;2022-12-11T13:26:43;36.90;;;18.60;;
35835;SDS011;21955;50.580;7.228;2022-12-11T13:29:26;40.80;;;18.70;;
35835;SDS011;21955;50.580;7.228;2022-12-11T13:31:55;36.73;;;17.60;;
35835;SDS011;21955;50.580;7.228;2022-12-11T13:34:23;34.47;;;16.77;;
35835;SDS011;21955;50.580;7.228;2022-12-11T13:36:50;32.40;;;16.50;;
35835;SDS011;21955;50.580;7.228;2022-12-11T13:39:21;36.15;;;17.52;;
35835;SDS011;21955;50.580;7.228;2022-12-11T13:41:50;34.92;;;16.67;;
35835;SDS011;21955;50.580;7.228;2022-12-11T13:44:19;36.50;;;17.17;;
35835;SDS011;21955;50.580;7.228;2022-12-11T13:46:47;34.78;;;16.50;;
35835;SDS011;21955;50.580;7.228;2022-12-11T13:49:17;33.75;;;15.90;;
35835;SDS011;21955;50.580;7.228;2022-12-11T13:51:50;34.67;;;15.97;;
35835;SDS011;21955;50.580;7.228;2022-12-11T13:54:17;31.57;;;15.40;;
35835;SDS011;21955;50.580;7.228;2022-12-11T13:57:03;31.92;;;15.85;;
35835;SDS011;21955;50.580;7.228;2022-12-11T13:59:40;32.70;;;15.25;;
35835;SDS011;21955;50.580;7.228;2022-12-11T14:02:10;30.35;;;14.70;;
35835;SDS011;21955;50.580;7.228;2022-12-11T14:04:38;33.83;;;15.45;;
35835;SDS011;21955;50.580;7.228;2022-12-11T14:07:07;36.10;;;17.02;;
35835;SDS011;21955;50.580;7.228;2022-12-11T14:09:36;37.60;;;17.50;;
35835;SDS011;21955;50.580;7.228;2022-12-11T14:12:11;37.97;;;17.63;;
35835;SDS011;21955;50.580;7.228;2022-12-11T14:14:41;35.13;;;17.63;;
35835;SDS011;21955;50.580;7.228;2022-12-11T14:17:10;33.13;;;15.73;;
35835;SDS011;21955;50.580;7.228;2022-12-11T14:19:38;35.33;;;16.30;;
35835;SDS011;21955;50.580;7.228;2022-12-11T14:22:06;33.28;;;15.27;;
35835;SDS011;21955;50.580;7.228;2022-12-11T14:24:33;34.10;;;15.68;;
35835;SDS011;21955;50.580;7.228;2022-12-11T14:27:01;32.20;;;15.37;;
35835;SDS011;21955;50.580;7.228;2022-12-11T14:29:30;32.13;;;15.68;;
35835;SDS011;21955;50.580;7.228;2022-12-11T14:31:58;31.75;;;14.55;;
35835;SDS011;21955;50.580;7.228;2022-12-11T14:34:29;35.08;;;15.73;;
35835;SDS011;21955;50.580;7.228;2022-12-11T14:36:56;33.13;;;15.57;;
35835;SDS011;21955;50.580;7.228;2022-12-11T14:39:24;31.50;;;15.18;;
35835;SDS011;21955;50.580;7.228;2022-12-11T14:41:54;31.40;;;14.50;;
35835;SDS011;21955;50.580;7.228;2022-12-11T14:44:24;32.35;;;14.85;;
35835;SDS011;21955;50.580;7.228;2022-12-11T14:46:53;30.65;;;14.52;;
35835;SDS011;21955;50.580;7.228;2022-12-11T14:49:23;34.25;;;15.55;;
35835;SDS011;21955;50.580;7.228;2022-12-11T14:51:51;31.45;;;15.25;;
35835;SDS011;21955;50.580;7.228;2022-12-11T14:54:24;32.88;;;14.82;;
35835;SDS011;21955;50.580;7.228;2022-12-11T14:56:53;32.10;;;15.05;;